createdAt,value
2022-08-04T00:00:15.921Z,65835.13
2022-08-04T00:03:14.627Z,65835.13
2022-08-04T00:06:15.253Z,65835.13
2022-08-04T00:08:46.688Z,65835.13
2022-08-04T00:11:22.379Z,65835.13
2022-08-04T00:14:03.518Z,65835.13
2022-08-04T00:16:38.742Z,65835.13
2022-08-04T00:19:32.340Z,65835.13
2022-08-04T00:22:09.366Z,65835.13
2022-08-04T00:24:37.248Z,65835.13
2022-08-04T00:27:04.838Z,65835.13
2022-08-04T00:29:31.849Z,65835.13
2022-08-04T00:31:59.587Z,65835.13
2022-08-04T00:34:28.655Z,65835.13
2022-08-04T00:36:57.470Z,65835.13
2022-08-04T00:39:25.236Z,65835.13
2022-08-04T00:42:10.238Z,65835.13
2022-08-04T00:44:43.211Z,65835.13
2022-08-04T00:47:19.741Z,65835.13
2022-08-04T00:50:15.822Z,65835.13
2022-08-04T00:53:09.459Z,65835.13
2022-08-04T00:55:57.545Z,65835.13
2022-08-04T00:58:47.450Z,65835.13
2022-08-04T01:01:52.635Z,65835.13
2022-08-04T01:04:46.578Z,65835.13
2022-08-04T01:07:25.620Z,65835.13
2022-08-04T01:10:17.681Z,65835.13
2022-08-04T01:13:15.280Z,65835.13
2022-08-04T01:16:18.204Z,65835.13
2022-08-04T01:19:30.527Z,65835.13
2022-08-04T01:22:33.617Z,65835.13
2022-08-04T01:25:18.956Z,65835.13
2022-08-04T01:28:22.852Z,65835.13
2022-08-04T01:30:57.864Z,65835.13
2022-08-04T01:33:29.993Z,65835.13
2022-08-04T01:36:01.513Z,65835.13
2022-08-04T01:38:40.418Z,65835.13
2022-08-04T01:41:14.992Z,65835.13
2022-08-04T01:43:45.410Z,65835.13
2022-08-04T01:46:15.191Z,65835.13
2022-08-04T01:48:47.254Z,65835.13
2022-08-04T01:51:14.381Z,65835.13
2022-08-04T01:53:44.929Z,65835.13
2022-08-04T01:56:12.947Z,65835.13
2022-08-04T01:58:41.319Z,65835.13
2022-08-04T02:01:12.031Z,65835.13
2022-08-04T02:04:21.448Z,65835.13
2022-08-04T02:06:53.200Z,65835.13
2022-08-04T02:09:47.097Z,65835.13
2022-08-04T02:13:03.615Z,65835.13
2022-08-04T02:15:39.465Z,65835.13
2022-08-04T02:18:23.252Z,65835.13
2022-08-04T02:20:58.953Z,65835.13
2022-08-04T02:23:30.491Z,65835.13
2022-08-04T02:26:20.008Z,65835.13
2022-08-04T02:29:01.027Z,65835.13
2022-08-04T02:31:39.719Z,65835.13
2022-08-04T02:34:09.219Z,65835.13
2022-08-04T02:36:43.179Z,65835.13
2022-08-04T02:39:12.185Z,65835.13
2022-08-04T02:41:40.401Z,65835.13
2022-08-04T02:44:09.395Z,65835.13
2022-08-04T02:46:39.356Z,65835.13
2022-08-04T02:49:10.851Z,65835.13
2022-08-04T02:51:41.779Z,65835.13
2022-08-04T02:54:09.563Z,65835.13
2022-08-04T02:56:39.044Z,65835.13
2022-08-04T02:59:09.082Z,65835.13
2022-08-04T03:01:36.482Z,65835.13
2022-08-04T03:04:13.598Z,65835.13
2022-08-04T03:07:28.544Z,65835.13
2022-08-04T03:10:13.650Z,65835.13
2022-08-04T03:13:05.254Z,65835.13
2022-08-04T03:16:03.450Z,65835.13
2022-08-04T03:18:59.527Z,65835.13
2022-08-04T03:22:13.252Z,65835.13
2022-08-04T03:25:14.047Z,65835.13
2022-08-04T03:27:53.302Z,65835.13
2022-08-04T03:30:29.479Z,65835.13
2022-08-04T03:33:05.071Z,65835.13
2022-08-04T03:36:05.309Z,65835.13
2022-08-04T03:39:20.296Z,65835.13
2022-08-04T03:42:04.013Z,65835.13
2022-08-04T03:45:02.390Z,65835.13
2022-08-04T03:47:53.144Z,65835.13
2022-08-04T03:50:41.617Z,65835.13
2022-08-04T03:53:32.509Z,65835.13
2022-08-04T03:56:30.359Z,65835.13
2022-08-04T03:59:18.937Z,65835.13
2022-08-04T04:02:07.181Z,65835.13
2022-08-04T04:04:56.561Z,65835.13
2022-08-04T04:07:36.529Z,65835.13
2022-08-04T04:10:31.608Z,65835.13
2022-08-04T04:13:27.682Z,65835.13
2022-08-04T04:15:57.454Z,65835.13
2022-08-04T04:19:05.526Z,65835.13
2022-08-04T04:21:53.843Z,65835.13
2022-08-04T04:24:40.953Z,65835.13
2022-08-04T04:27:26.127Z,65835.13
2022-08-04T04:30:05.192Z,65835.13
2022-08-04T04:32:58.353Z,65835.13
2022-08-04T10:17:07.755Z,97822.22
2022-08-04T10:19:41.377Z,97807.16
2022-08-04T10:22:29.282Z,97821.22
2022-08-04T10:26:02.693Z,97831.88
2022-08-04T10:28:03.152Z,97838.44
2022-08-04T10:30:34.247Z,97835.59
2022-08-04T10:33:31.284Z,97835.91
2022-08-04T10:36:03.320Z,97829.44
2022-08-04T10:38:32.105Z,97838.47
2022-08-04T10:41:06.995Z,97832.69
2022-08-04T10:43:49.017Z,97834.78
2022-08-04T10:46:26.362Z,97820.72
2022-08-04T10:49:21.800Z,97830.19
2022-08-04T10:51:59.678Z,97823.88
2022-08-04T10:54:35.569Z,97819.63
2022-08-04T10:57:11.018Z,97813.72
2022-08-04T10:59:52.546Z,97816.97
2022-08-04T11:02:42.087Z,97814.25
2022-08-04T11:05:25.431Z,97811.75
2022-08-04T11:08:01.141Z,97807.69
2022-08-04T11:10:31.514Z,97808.47
2022-08-04T11:13:05.161Z,97812.44
2022-08-04T11:15:40.731Z,97820.28
2022-08-04T11:18:16.997Z,97813.41
2022-08-04T11:20:55.968Z,97815.88
2022-08-04T11:23:29.362Z,97806.69
2022-08-04T11:26:14.760Z,97813.81
2022-08-04T11:29:17.381Z,97806.25
2022-08-04T11:31:51.806Z,97802.88
2022-08-04T11:34:27.346Z,97803.88
2022-08-04T11:37:14.151Z,97795.53
2022-08-04T11:39:53.586Z,97798.06
2022-08-04T11:42:29.636Z,97786.84
2022-08-04T11:45:15.695Z,97788.63
2022-08-04T11:47:55.624Z,97796.75
2022-08-04T11:50:54.161Z,97798.31
2022-08-04T11:53:36.358Z,97796.25
2022-08-04T11:56:09.370Z,97789.91
2022-08-04T11:58:38.178Z,97801.97
2022-08-04T12:01:20.054Z,97806.91
2022-08-04T12:04:04.750Z,97815.19
2022-08-04T12:07:21.750Z,97813.47
2022-08-04T12:09:57.538Z,97794.91
2022-08-04T12:13:18.711Z,97797.00
2022-08-04T12:16:13.921Z,97786.16
2022-08-04T12:18:52.621Z,97779.03
2022-08-04T12:21:33.883Z,97785.53
2022-08-04T12:24:26.334Z,97784.88
2022-08-04T12:26:58.542Z,97790.19
2022-08-04T12:29:30.736Z,97789.03
2022-08-04T12:32:04.714Z,97777.03
2022-08-04T12:34:43.764Z,97784.19
2022-08-04T12:37:28.954Z,97784.25
2022-08-04T12:40:27.458Z,97780.25
2022-08-04T12:43:06.110Z,97786.69
2022-08-04T12:45:34.407Z,97777.06
2022-08-04T12:48:06.478Z,97780.38
2022-08-04T12:50:34.559Z,97773.91
2022-08-04T12:53:03.773Z,97777.94
2022-08-04T12:55:34.245Z,97792.22
2022-08-04T12:58:03.676Z,97788.91
2022-08-04T13:00:42.047Z,97781.38
2022-08-04T13:03:12.311Z,97771.25
2022-08-04T13:05:41.983Z,97771.16
2022-08-04T13:08:11.175Z,97764.16
2022-08-04T13:10:44.602Z,97769.34
2022-08-04T13:13:20.066Z,97770.50
2022-08-04T13:16:08.581Z,97778.38
2022-08-04T13:18:46.210Z,97785.31
2022-08-04T13:21:20.163Z,97783.50
2022-08-04T13:24:20.448Z,97780.56
2022-08-04T13:26:54.371Z,97776.16
2022-08-04T13:29:58.161Z,97775.72
2022-08-04T13:32:24.618Z,65835.13
2022-08-04T13:34:55.349Z,65835.13
2022-08-04T13:37:30.700Z,65835.13
2022-08-04T13:39:59.654Z,65835.13
2022-08-04T13:42:28.519Z,65835.13
2022-08-04T13:44:58.882Z,65835.13
2022-08-04T13:47:30.573Z,65835.13
2022-08-04T13:50:15.814Z,65835.13
2022-08-04T13:52:45.023Z,65835.13
2022-08-04T13:55:22.734Z,65835.13
2022-08-04T13:57:54.331Z,65835.13
2022-08-04T14:00:29.632Z,65835.13
2022-08-04T14:03:01.375Z,65835.13
2022-08-04T14:05:33.842Z,65835.13
2022-08-04T14:08:18.159Z,65835.13
2022-08-04T14:10:57.850Z,65835.13
2022-08-04T14:13:41.181Z,65835.13
2022-08-04T14:16:20.827Z,65835.13
2022-08-04T14:18:57.385Z,65835.13
2022-08-04T14:21:24.957Z,65835.13
2022-08-04T14:23:56.562Z,65835.13
2022-08-04T14:26:33.814Z,65835.13
2022-08-04T14:29:28.654Z,65835.13
2022-08-04T14:32:12.695Z,65835.13
2022-08-04T14:34:45.297Z,65835.13
2022-08-04T14:37:18.454Z,65835.13
2022-08-04T14:40:17.718Z,65835.13
2022-08-04T14:42:53.899Z,65835.13
2022-08-04T14:45:54.356Z,65835.13
2022-08-04T14:48:23.357Z,65835.13
2022-08-04T14:50:51.176Z,65835.13
2022-08-04T14:53:20.732Z,65835.13
2022-08-04T14:55:56.996Z,65835.13
2022-08-04T14:58:38.426Z,65835.13
2022-08-04T15:01:12.474Z,65835.13
2022-08-04T15:03:50.236Z,65835.13
2022-08-04T15:06:28.319Z,65835.13
2022-08-04T15:08:58.691Z,65835.13
2022-08-04T15:11:26.345Z,65835.13
2022-08-04T15:13:54.587Z,65835.13
2022-08-04T15:16:23.210Z,65835.13
2022-08-04T15:18:52.792Z,65835.13
2022-08-04T15:21:26.030Z,65835.13
2022-08-04T15:23:53.174Z,65835.13
2022-08-04T15:26:27.775Z,65835.13
2022-08-04T15:29:03.418Z,65835.13
2022-08-04T15:32:07.953Z,65835.13
2022-08-04T15:34:23.867Z,65835.13
2022-08-04T15:36:56.199Z,65835.13
2022-08-04T15:39:45.071Z,65835.13
2022-08-04T15:42:22.047Z,65835.13
2022-08-04T15:44:51.666Z,65835.13
2022-08-04T15:47:18.897Z,65835.13
2022-08-04T15:49:46.110Z,65835.13
2022-08-04T15:52:16.590Z,65835.13
2022-08-04T15:54:52.634Z,65835.13
2022-08-04T15:58:18.500Z,65835.13
2022-08-04T16:00:48.059Z,65835.13
2022-08-04T16:03:58.979Z,65835.13
2022-08-04T16:06:20.543Z,65835.13
2022-08-04T16:08:57.546Z,65835.13
2022-08-04T16:11:31.449Z,65835.13
2022-08-04T16:13:59.458Z,65835.13
2022-08-04T16:16:29.486Z,65835.13
2022-08-04T16:19:05.259Z,65835.13
2022-08-04T16:21:34.498Z,65835.13
2022-08-04T16:24:22.652Z,65835.13
2022-08-04T16:26:56.478Z,65835.13
2022-08-04T16:29:23.764Z,65835.13
2022-08-04T16:32:06.375Z,65835.13
2022-08-04T16:34:50.455Z,65835.13
2022-08-04T16:37:29.328Z,65835.13
2022-08-04T16:40:33.685Z,65835.13
2022-08-04T16:43:05.373Z,65835.13
2022-08-04T16:45:55.677Z,65835.13
2022-08-04T16:48:33.335Z,65835.13
2022-08-04T16:51:05.045Z,65835.13
2022-08-04T16:54:03.104Z,65835.13
2022-08-04T16:56:34.510Z,65835.13
2022-08-04T16:59:12.708Z,65835.13
2022-08-04T17:01:50.368Z,65835.13
2022-08-04T17:04:17.487Z,65835.13
2022-08-04T17:06:48.656Z,65835.13
2022-08-04T17:09:17.711Z,65835.13
2022-08-04T17:11:46.944Z,65835.13
2022-08-04T17:14:13.881Z,65835.13
2022-08-04T17:16:43.436Z,65835.13
2022-08-04T17:19:23.749Z,65835.13
2022-08-04T17:22:05.516Z,65835.13
2022-08-04T17:24:40.774Z,65835.13
2022-08-04T17:28:09.752Z,65835.13
2022-08-04T17:29:56.021Z,65835.13
2022-08-04T17:35:10.446Z,65835.13
2022-08-04T17:37:52.816Z,65835.13
2022-08-04T17:40:25.315Z,65835.13
2022-08-04T17:44:01.197Z,65835.13
2022-08-04T17:46:28.127Z,65835.13
2022-08-04T17:49:19.201Z,65835.13
2022-08-04T17:52:06.850Z,65835.13
2022-08-04T17:54:40.371Z,65835.13
2022-08-04T17:57:15.040Z,65835.13
2022-08-04T17:59:55.785Z,65835.13
2022-08-04T18:02:35.093Z,65835.13
2022-08-04T18:05:07.011Z,65835.13
2022-08-04T18:08:41.499Z,65835.13
2022-08-04T18:10:51.889Z,65835.13
2022-08-04T18:13:28.144Z,65835.13
2022-08-04T18:16:06.688Z,65835.13
2022-08-04T18:18:41.819Z,65835.13
2022-08-04T18:21:16.160Z,65835.13
2022-08-04T18:23:50.925Z,65835.13
2022-08-04T18:26:18.630Z,65835.13
2022-08-04T18:28:51.375Z,65835.13
2022-08-04T18:31:18.464Z,65835.13
2022-08-04T18:33:57.146Z,65835.13
2022-08-04T18:36:34.732Z,65835.13
2022-08-04T18:39:12.943Z,65835.13
2022-08-04T18:42:01.325Z,65835.13
2022-08-04T18:44:53.108Z,65835.13
2022-08-04T18:47:29.582Z,65835.13
2022-08-04T18:50:59.024Z,65835.13
2022-08-04T18:52:45.665Z,65835.13
2022-08-04T18:55:56.645Z,65835.13
2022-08-04T18:58:07.844Z,65835.13
2022-08-04T19:00:45.037Z,65835.13
2022-08-04T19:03:16.297Z,65835.13
2022-08-04T19:05:49.390Z,65835.13
2022-08-04T19:08:34.832Z,65835.13
2022-08-04T19:11:38.363Z,65835.13
2022-08-04T19:13:57.758Z,65835.13
2022-08-04T19:16:29.340Z,65835.13
2022-08-04T19:19:01.849Z,65835.13
2022-08-04T19:22:00.646Z,65835.13
2022-08-04T19:24:31.675Z,65835.13
2022-08-04T19:27:06.793Z,65835.13
2022-08-04T19:29:37.820Z,65835.13
2022-08-04T19:32:14.539Z,65835.13
2022-08-04T19:34:47.879Z,65835.13
2022-08-04T19:37:56.828Z,65835.13
2022-08-04T19:40:08.105Z,65835.13
2022-08-04T19:42:37.073Z,65835.13
2022-08-04T19:45:05.187Z,65835.13
2022-08-04T19:48:21.406Z,65835.13
2022-08-04T19:50:20.068Z,65835.13
2022-08-04T19:52:52.569Z,65835.13
2022-08-04T19:55:37.841Z,65835.13
2022-08-04T20:00:55.477Z,65835.13
2022-08-04T20:03:22.728Z,65835.13
2022-08-04T20:06:09.971Z,65835.13
2022-08-04T20:08:36.992Z,65835.13
2022-08-04T20:11:04.418Z,65835.13
2022-08-04T20:13:31.421Z,65835.13
2022-08-04T20:16:20.237Z,65835.13
2022-08-04T20:18:57.162Z,65835.13
2022-08-04T20:24:38.988Z,65835.13
2022-08-04T20:27:07.827Z,65835.13
2022-08-04T20:29:51.993Z,65835.13
2022-08-04T20:32:25.153Z,65835.13
2022-08-04T20:34:54.139Z,65835.13
2022-08-04T20:37:24.763Z,65835.13
2022-08-04T20:39:59.156Z,65835.13
2022-08-04T20:42:33.818Z,65835.13
2022-08-04T20:45:02.171Z,65835.13
2022-08-04T20:47:35.419Z,65835.13
2022-08-04T20:50:08.919Z,65835.13
2022-08-04T20:52:37.781Z,65835.13
2022-08-04T20:55:05.854Z,65835.13
2022-08-04T20:57:48.379Z,65835.13
2022-08-04T21:00:17.679Z,65835.13
2022-08-04T21:02:53.916Z,65835.13
2022-08-04T21:05:20.894Z,65835.13
2022-08-04T21:07:48.879Z,65835.13
2022-08-04T21:10:16.939Z,65835.13
2022-08-04T21:15:58.300Z,65835.13
2022-08-04T21:18:18.566Z,65835.13
2022-08-04T21:20:56.262Z,65835.13
2022-08-04T21:23:23.225Z,65835.13
2022-08-04T21:25:57.968Z,65835.13
2022-08-04T21:28:25.627Z,65835.13
2022-08-04T21:30:55.074Z,65835.13
2022-08-04T21:33:50.192Z,65835.13
2022-08-04T21:36:12.575Z,65835.13
2022-08-04T21:38:39.815Z,65835.13
2022-08-04T21:41:08.915Z,65835.13
2022-08-04T21:43:42.976Z,65835.13
2022-08-04T21:46:11.462Z,65835.13
2022-08-04T21:48:39.355Z,65835.13
2022-08-04T21:51:58.941Z,65835.13
2022-08-04T21:54:01.433Z,65835.13
2022-08-04T21:56:29.189Z,65835.13
2022-08-04T21:58:58.029Z,65835.13
2022-08-04T22:01:51.847Z,65835.13
2022-08-04T22:04:13.161Z,65835.13
2022-08-04T22:06:40.259Z,65835.13
2022-08-04T22:09:14.785Z,65835.13
2022-08-04T22:11:50.837Z,65835.13
2022-08-04T22:14:29.717Z,65835.13
2022-08-04T22:19:56.287Z,65835.13
2022-08-04T22:22:27.079Z,65835.13
2022-08-04T22:25:00.191Z,65835.13
2022-08-04T22:27:47.730Z,65835.13
2022-08-04T22:30:17.187Z,65835.13
2022-08-04T22:32:47.042Z,65835.13
2022-08-04T22:35:35.808Z,65835.13
2022-08-04T22:38:07.726Z,65835.13
2022-08-04T22:40:47.878Z,65835.13
2022-08-04T22:43:32.575Z,65835.13
2022-08-04T22:46:03.892Z,65835.13
2022-08-04T22:48:36.954Z,65835.13
2022-08-04T22:51:05.727Z,65835.13
2022-08-04T22:53:35.385Z,65835.13
2022-08-04T22:56:09.538Z,65835.13
2022-08-04T22:58:45.497Z,65835.13
2022-08-04T23:01:18.441Z,65835.13
2022-08-04T23:03:55.232Z,65835.13
2022-08-04T23:06:28.319Z,65835.13
2022-08-04T23:08:56.513Z,65835.13
2022-08-04T23:11:24.187Z,65835.13
2022-08-04T23:14:02.257Z,65835.13
2022-08-04T23:16:29.401Z,65835.13
2022-08-04T23:18:56.682Z,65835.13
2022-08-04T23:21:24.686Z,65835.13
2022-08-04T23:24:00.747Z,65835.13
2022-08-04T23:26:31.503Z,65835.13
2022-08-04T23:28:58.701Z,65835.13
2022-08-04T23:31:41.065Z,65835.13
2022-08-04T23:34:13.857Z,65835.13
2022-08-04T23:36:45.678Z,65835.13
2022-08-04T23:39:14.577Z,65835.13
2022-08-04T23:41:55.430Z,65835.13
2022-08-04T23:44:26.772Z,65835.13
2022-08-04T23:47:01.451Z,65835.13
2022-08-04T23:49:43.282Z,65835.13
2022-08-04T23:52:27.882Z,65835.13
2022-08-04T23:54:59.055Z,65835.13
2022-08-04T23:57:31.025Z,65835.13
